Time;durP1;ratioP1;P1;durP2;ratioP2;P2;SDS_P1;SDS_P2;PMS_P1;PMS_P2;Temp;Humidity;BMP_temperature;BMP_pressure;BME280_temperature;BME280_humidity;BME280_pressure;Samples;Min_cycle;Max_cycle;Signal;HPM_P1;HPM_P2
2021/04/18 00:01:53;;;;;;;;;8.25;8.25;;;;;;;;3558451;39;114086;-68
2021/04/18 00:04:20;;;;;;;;;10.00;9.75;;;;;;;;3558941;39;114085;-69
2021/04/18 00:06:46;;;;;;;;;12.00;10.25;;;;;;;;3558693;39;111769;-68
2021/04/18 00:09:12;;;;;;;;;7.75;7.75;;;;;;;;3560360;39;113438;-67
2021/04/18 00:11:38;;;;;;;;;7.50;7.00;;;;;;;;3559234;39;111978;-68
2021/04/18 00:14:06;;;;;;;;;13.00;9.00;;;;;;;;3558415;39;113230;-67
2021/04/18 00:16:32;;;;;;;;;10.25;9.25;;;;;;;;3558474;39;113886;-67
2021/04/18 00:18:58;;;;;;;;;9.25;9.25;;;;;;;;3559403;39;112060;-68
2021/04/18 00:21:25;;;;;;;;;7.50;7.50;;;;;;;;3558118;39;111994;-68
2021/04/18 00:23:51;;;;;;;;;10.25;10.25;;;;;;;;3557707;39;114371;-67
2021/04/18 00:26:17;;;;;;;;;14.25;8.25;;;;;;;;3559491;39;112002;-67
2021/04/18 00:28:43;;;;;;;;;12.50;12.50;;;;;;;;3558033;39;113401;-67
2021/04/18 00:31:09;;;;;;;;;9.25;9.25;;;;;;;;3561807;39;114773;-68
2021/04/18 00:33:35;;;;;;;;;8.50;8.00;;;;;;;;3554808;39;112660;-68
2021/04/18 00:36:01;;;;;;;;;8.00;8.00;;;;;;;;3558707;39;114042;-68
2021/04/18 00:38:28;;;;;;;;;12.67;11.33;;;;;;;;3558725;39;111837;-68
2021/04/18 00:40:54;;;;;;;;;11.00;11.00;;;;;;;;3558443;39;113459;-67
2021/04/18 00:43:20;;;;;;;;;9.33;9.33;;;;;;;;3558560;39;114010;-67
2021/04/18 00:45:46;;;;;;;;;9.67;9.67;;;;;;;;3557940;39;111983;-67
2021/04/18 00:48:12;;;;;;;;;9.25;8.75;;;;;;;;3559491;39;113861;-68
2021/04/18 00:50:39;;;;;;;;;11.00;9.00;;;;;;;;3557482;39;114002;-68
2021/04/18 00:53:07;;;;;;;;;9.00;9.00;;;;;;;;3561748;39;112040;-68
2021/04/18 00:55:35;;;;;;;;;14.00;10.33;;;;;;;;3557441;39;113883;-68
2021/04/18 00:58:01;;;;;;;;;10.67;9.00;;;;;;;;3558871;39;111853;-68
2021/04/18 01:00:27;;;;;;;;;10.67;8.33;;;;;;;;3558465;39;113389;-68
2021/04/18 01:02:54;;;;;;;;;12.67;11.67;;;;;;;;3556218;39;113020;-68
2021/04/18 01:05:20;;;;;;;;;10.33;9.00;;;;;;;;3558948;39;111738;-67
2021/04/18 01:07:46;;;;;;;;;13.00;11.00;;;;;;;;3557683;39;113938;-67
2021/04/18 01:10:14;;;;;;;;;14.00;11.33;;;;;;;;3558685;39;113590;-68
2021/04/18 01:12:41;;;;;;;;;11.00;11.00;;;;;;;;3555600;39;112197;-68
2021/04/18 01:15:08;;;;;;;;;13.67;11.67;;;;;;;;3561244;39;113701;-68
2021/04/18 01:17:34;;;;;;;;;14.00;12.00;;;;;;;;3557872;39;111869;-68
2021/04/18 01:20:00;;;;;;;;;12.00;12.00;;;;;;;;3560583;39;113871;-67
2021/04/18 01:22:27;;;;;;;;;13.00;11.67;;;;;;;;3558678;39;114118;-68
2021/04/18 01:24:53;;;;;;;;;16.67;13.00;;;;;;;;3558579;39;111964;-69
2021/04/18 01:27:20;;;;;;;;;12.75;11.75;;;;;;;;3557668;39;113604;-67
2021/04/18 01:29:46;;;;;;;;;12.67;12.67;;;;;;;;3558581;39;114732;-68
2021/04/18 01:32:12;;;;;;;;;13.00;12.00;;;;;;;;3557263;39;111769;-68
2021/04/18 01:34:39;;;;;;;;;11.00;11.00;;;;;;;;3558996;39;113234;-68
2021/04/18 01:37:06;;;;;;;;;11.25;10.50;;;;;;;;3559694;39;112035;-67
2021/04/18 01:39:33;;;;;;;;;12.67;12.00;;;;;;;;3558444;39;114342;-68
2021/04/18 01:42:00;;;;;;;;;12.75;10.50;;;;;;;;3557463;39;113836;-68
2021/04/18 01:44:26;;;;;;;;;12.67;11.33;;;;;;;;3559951;39;111765;-68
2021/04/18 01:46:52;;;;;;;;;12.00;11.00;;;;;;;;3558598;39;113185;-67
2021/04/18 01:49:18;;;;;;;;;12.33;12.33;;;;;;;;3556688;39;114049;-68
2021/04/18 01:51:44;;;;;;;;;12.33;11.00;;;;;;;;3558873;39;112077;-68
2021/04/18 01:54:10;;;;;;;;;10.33;10.33;;;;;;;;3557147;39;113096;-68
2021/04/18 01:56:37;;;;;;;;;12.00;12.00;;;;;;;;3560684;39;114616;-68
2021/04/18 01:59:03;;;;;;;;;13.00;12.00;;;;;;;;3557626;39;113351;-68
2021/04/18 02:01:29;;;;;;;;;10.67;10.67;;;;;;;;3557612;39;113921;-68
2021/04/18 02:03:56;;;;;;;;;12.67;11.00;;;;;;;;3558873;39;112274;-66
2021/04/18 02:06:22;;;;;;;;;10.67;9.67;;;;;;;;3558350;39;112879;-69
2021/04/18 02:08:48;;;;;;;;;10.00;10.00;;;;;;;;3558304;39;113842;-67
2021/04/18 02:11:14;;;;;;;;;11.00;10.33;;;;;;;;3560218;39;111905;-68
2021/04/18 02:13:41;;;;;;;;;8.67;8.00;;;;;;;;3558545;39;113653;-67
2021/04/18 02:16:08;;;;;;;;;14.33;11.00;;;;;;;;3559567;39;113924;-68
2021/04/18 02:18:34;;;;;;;;;14.67;10.00;;;;;;;;3561417;39;111872;-68
2021/04/18 02:21:00;;;;;;;;;11.00;10.00;;;;;;;;3561202;39;114453;-68
2021/04/18 02:23:26;;;;;;;;;11.00;10.00;;;;;;;;3559211;39;111892;-68
2021/04/18 02:25:52;;;;;;;;;15.67;11.00;;;;;;;;3559005;39;114000;-67
2021/04/18 02:28:18;;;;;;;;;14.00;12.67;;;;;;;;3559417;39;114071;-67
2021/04/18 02:30:45;;;;;;;;;10.00;8.33;;;;;;;;3558415;39;112111;-66
2021/04/18 02:33:12;;;;;;;;;15.00;10.67;;;;;;;;3558384;39;113217;-67
2021/04/18 02:35:38;;;;;;;;;10.33;10.33;;;;;;;;3559585;39;114045;-67
2021/04/18 02:38:04;;;;;;;;;11.33;11.33;;;;;;;;3558818;39;112148;-68
2021/04/18 02:40:30;;;;;;;;;15.00;10.00;;;;;;;;3561543;39;113318;-68
2021/04/18 02:42:56;;;;;;;;;12.00;10.00;;;;;;;;3559521;39;111811;-68
2021/04/18 02:45:22;;;;;;;;;10.00;10.00;;;;;;;;3558663;39;113354;-68
2021/04/18 02:47:49;;;;;;;;;10.33;8.67;;;;;;;;3559538;39;113792;-68
2021/04/18 02:50:15;;;;;;;;;10.67;10.33;;;;;;;;3560295;39;112995;-68
2021/04/18 02:52:41;;;;;;;;;13.67;10.00;;;;;;;;3560236;39;113360;-68
2021/04/18 02:55:08;;;;;;;;;12.67;12.67;;;;;;;;3557980;39;114750;-68
2021/04/18 02:57:34;;;;;;;;;14.33;11.00;;;;;;;;3559595;39;114107;-69
2021/04/18 03:00:00;;;;;;;;;10.00;10.00;;;;;;;;3559037;39;113368;-67
2021/04/18 03:02:26;;;;;;;;;14.00;12.00;;;;;;;;3561307;39;114366;-67
2021/04/18 03:04:57;;;;;;;;;12.00;10.67;;;;;;;;3559554;39;113177;-67
2021/04/18 03:07:23;;;;;;;;;16.33;14.33;;;;;;;;3558263;39;113720;-68
2021/04/18 03:09:49;;;;;;;;;9.67;9.67;;;;;;;;3559845;39;113324;-67
2021/04/18 03:12:15;;;;;;;;;11.33;10.33;;;;;;;;3558209;39;112970;-67
2021/04/18 03:14:41;;;;;;;;;9.67;9.67;;;;;;;;3559689;39;113671;-67
2021/04/18 03:17:07;;;;;;;;;15.00;11.00;;;;;;;;3558516;39;112288;-67
2021/04/18 03:19:33;;;;;;;;;7.67;6.00;;;;;;;;3559519;39;113184;-69
2021/04/18 03:22:00;;;;;;;;;14.00;11.00;;;;;;;;3558457;39;113959;-67
2021/04/18 03:24:26;;;;;;;;;12.67;11.67;;;;;;;;3561714;39;111957;-67
2021/04/18 03:26:52;;;;;;;;;13.00;13.00;;;;;;;;3558895;39;114081;-68
2021/04/18 03:29:18;;;;;;;;;11.00;11.00;;;;;;;;3558530;39;111766;-68
2021/04/18 03:31:44;;;;;;;;;9.33;9.33;;;;;;;;3562181;39;113777;-67
2021/04/18 03:34:10;;;;;;;;;13.00;10.00;;;;;;;;3559741;39;114446;-68
2021/04/18 03:36:36;;;;;;;;;10.67;9.67;;;;;;;;3559628;39;111940;-70
2021/04/18 03:39:04;;;;;;;;;11.67;11.00;;;;;;;;3558826;39;113397;-67
2021/04/18 03:41:30;;;;;;;;;10.00;10.00;;;;;;;;3558667;39;114176;-68
2021/04/18 03:43:57;;;;;;;;;9.33;9.00;;;;;;;;3561828;39;112052;-68
2021/04/18 03:46:23;;;;;;;;;14.33;10.33;;;;;;;;3558292;39;113910;-67
2021/04/18 03:48:49;;;;;;;;;13.67;10.00;;;;;;;;3559481;39;111890;-67
2021/04/18 03:51:15;;;;;;;;;11.00;11.00;;;;;;;;3558071;39;113566;-68
2021/04/18 03:53:41;;;;;;;;;7.00;7.00;;;;;;;;3559575;39;113818;-68
2021/04/18 03:56:08;;;;;;;;;10.00;10.00;;;;;;;;3554789;39;112357;-68
2021/04/18 03:58:35;;;;;;;;;15.00;11.00;;;;;;;;3559414;39;113370;-68
2021/04/18 04:01:01;;;;;;;;;11.00;11.00;;;;;;;;3558119;39;113935;-68
2021/04/18 04:03:27;;;;;;;;;18.33;14.00;;;;;;;;3558722;39;112791;-68
2021/04/18 04:05:53;;;;;;;;;11.00;11.00;;;;;;;;3561560;39;113312;-67
2021/04/18 04:08:19;;;;;;;;;17.00;13.00;;;;;;;;3558307;39;111845;-67
2021/04/18 04:10:45;;;;;;;;;13.00;13.00;;;;;;;;3559740;39;113297;-67
2021/04/18 04:13:12;;;;;;;;;11.67;11.00;;;;;;;;3557665;39;114342;-67
2021/04/18 04:15:38;;;;;;;;;10.00;10.00;;;;;;;;3557959;39;111909;-68
2021/04/18 04:18:04;;;;;;;;;11.00;11.00;;;;;;;;3560156;39;113385;-67
2021/04/18 04:20:30;;;;;;;;;10.00;7.00;;;;;;;;3555292;39;112991;-68
2021/04/18 04:22:56;;;;;;;;;12.33;10.33;;;;;;;;3558851;39;111775;-67
2021/04/18 04:25:23;;;;;;;;;11.00;11.00;;;;;;;;3558487;39;113429;-68
2021/04/18 04:27:49;;;;;;;;;13.00;13.00;;;;;;;;3561635;39;114542;-68
2021/04/18 04:30:17;;;;;;;;;12.33;12.33;;;;;;;;3557556;39;113871;-67
2021/04/18 04:32:43;;;;;;;;;12.00;11.67;;;;;;;;3555790;39;112873;-68
2021/04/18 04:35:09;;;;;;;;;14.33;10.00;;;;;;;;3557810;39;111795;-68
2021/04/18 04:37:35;;;;;;;;;14.67;11.67;;;;;;;;3558145;39;113620;-69
2021/04/18 04:40:03;;;;;;;;;12.33;10.67;;;;;;;;3558703;39;113977;-67
2021/04/18 04:42:29;;;;;;;;;13.33;10.33;;;;;;;;3559151;39;111742;-67
2021/04/18 04:44:55;;;;;;;;;15.33;10.67;;;;;;;;3559512;39;114016;-67
2021/04/18 04:47:22;;;;;;;;;10.33;9.00;;;;;;;;3557255;39;112662;-66
2021/04/18 04:49:48;;;;;;;;;13.33;13.33;;;;;;;;3562663;39;112271;-67
2021/04/18 04:52:14;;;;;;;;;13.00;13.00;;;;;;;;3558721;39;113951;-68
2021/04/18 04:54:40;;;;;;;;;13.00;13.00;;;;;;;;3557940;39;111826;-69
2021/04/18 04:57:07;;;;;;;;;20.00;13.67;;;;;;;;3557473;39;113265;-68
2021/04/18 04:59:33;;;;;;;;;18.00;13.00;;;;;;;;3554456;39;113145;-67
2021/04/18 05:01:59;;;;;;;;;18.00;14.00;;;;;;;;3558565;39;111836;-69
2021/04/18 05:04:26;;;;;;;;;14.67;14.00;;;;;;;;3557832;39;113423;-68
2021/04/18 05:06:52;;;;;;;;;15.67;14.67;;;;;;;;3557184;39;113966;-68
2021/04/18 05:09:18;;;;;;;;;17.33;14.00;;;;;;;;3557484;39;112065;-68
2021/04/18 05:11:44;;;;;;;;;14.00;11.67;;;;;;;;3561131;39;113443;-67
2021/04/18 05:14:11;;;;;;;;;14.00;14.00;;;;;;;;3557581;39;111994;-67
2021/04/18 05:16:37;;;;;;;;;18.33;14.67;;;;;;;;3559502;39;113320;-67
2021/04/18 05:19:03;;;;;;;;;14.67;13.33;;;;;;;;3557570;39;113962;-67
2021/04/18 05:21:30;;;;;;;;;15.67;13.67;;;;;;;;3558579;39;111690;-67
2021/04/18 05:23:56;;;;;;;;;17.33;13.33;;;;;;;;3558405;39;113906;-67
2021/04/18 05:26:22;;;;;;;;;16.33;13.33;;;;;;;;3557631;39;114025;-68
2021/04/18 05:28:48;;;;;;;;;11.00;11.00;;;;;;;;3558825;39;111850;-67
2021/04/18 05:31:14;;;;;;;;;17.33;13.67;;;;;;;;3557522;39;113727;-69
2021/04/18 05:33:40;;;;;;;;;15.67;14.00;;;;;;;;3561407;39;114203;-68
2021/04/18 05:36:06;;;;;;;;;14.00;13.67;;;;;;;;3557908;39;113382;-69
2021/04/18 05:38:33;;;;;;;;;13.33;13.33;;;;;;;;3558464;39;113856;-67
2021/04/18 05:41:00;;;;;;;;;13.00;11.00;;;;;;;;3557992;39;112663;-69
2021/04/18 05:43:26;;;;;;;;;16.67;14.33;;;;;;;;3559692;39;113756;-67
2021/04/18 05:45:53;;;;;;;;;17.00;14.67;;;;;;;;3562262;39;113831;-66
2021/04/18 05:48:19;;;;;;;;;15.67;15.67;;;;;;;;3559948;39;111846;-68
2021/04/18 05:50:45;;;;;;;;;15.67;14.00;;;;;;;;3558887;39;113240;-68
2021/04/18 05:53:11;;;;;;;;;15.33;14.00;;;;;;;;3562665;39;114515;-67
2021/04/18 05:55:38;;;;;;;;;13.67;11.67;;;;;;;;3558641;39;113715;-68
2021/04/18 05:58:04;;;;;;;;;13.67;11.00;;;;;;;;3559860;39;114015;-67
2021/04/18 06:00:30;;;;;;;;;14.00;13.00;;;;;;;;3558921;39;112829;-68
2021/04/18 06:02:57;;;;;;;;;16.67;13.00;;;;;;;;3560595;39;113570;-68
2021/04/18 06:05:25;;;;;;;;;15.33;11.00;;;;;;;;3558954;39;113910;-68
2021/04/18 06:07:51;;;;;;;;;12.33;11.00;;;;;;;;3559336;39;112099;-68
2021/04/18 06:10:17;;;;;;;;;12.33;10.33;;;;;;;;3559776;39;113349;-67
2021/04/18 06:12:44;;;;;;;;;11.67;9.67;;;;;;;;3558397;39;113766;-67
2021/04/18 06:15:11;;;;;;;;;7.00;7.00;;;;;;;;3563061;39;112322;-67
2021/04/18 06:17:37;;;;;;;;;15.00;10.33;;;;;;;;3558166;39;113846;-67
2021/04/18 06:20:04;;;;;;;;;12.33;11.67;;;;;;;;3559864;39;112122;-66
2021/04/18 06:22:30;;;;;;;;;9.00;9.00;;;;;;;;3560053;39;113414;-66
2021/04/18 06:24:57;;;;;;;;;14.33;10.00;;;;;;;;3558634;39;114027;-67
2021/04/18 06:27:23;;;;;;;;;9.33;9.33;;;;;;;;3558684;39;112027;-66
2021/04/18 06:29:50;;;;;;;;;9.00;9.00;;;;;;;;3560313;39;113619;-67
2021/04/18 06:32:16;;;;;;;;;12.00;11.67;;;;;;;;3557690;39;114211;-67
2021/04/18 06:34:42;;;;;;;;;14.67;12.67;;;;;;;;3560009;39;111747;-67
2021/04/18 06:37:08;;;;;;;;;13.33;11.33;;;;;;;;3560092;39;113378;-67
2021/04/18 06:39:34;;;;;;;;;12.67;12.67;;;;;;;;3559149;39;112192;-66
2021/04/18 06:42:01;;;;;;;;;15.00;11.00;;;;;;;;3558196;39;113447;-67
2021/04/18 06:44:28;;;;;;;;;11.00;11.00;;;;;;;;3558349;39;114199;-67
2021/04/18 06:46:57;;;;;;;;;10.33;10.00;;;;;;;;3558775;39;112147;-66
2021/04/18 06:49:23;;;;;;;;;10.67;10.67;;;;;;;;3558167;39;113492;-67
2021/04/18 06:51:50;;;;;;;;;13.33;13.33;;;;;;;;3558962;39;113803;-68
2021/04/18 06:54:16;;;;;;;;;13.33;11.33;;;;;;;;3557628;39;112367;-67
2021/04/18 06:56:42;;;;;;;;;12.67;11.00;;;;;;;;3559463;39;112730;-67
2021/04/18 06:59:08;;;;;;;;;15.00;12.00;;;;;;;;3560354;39;113877;-66
2021/04/18 07:01:35;;;;;;;;;5.00;2.33;;;;;;;;3559255;39;113526;-68
2021/04/18 07:04:12;;;;;;;;;16.00;12.67;;;;;;;;3557732;39;114112;-65
2021/04/18 07:06:40;;;;;;;;;11.33;10.67;;;;;;;;3557558;39;112193;-66
2021/04/18 07:09:06;;;;;;;;;13.67;11.00;;;;;;;;3557873;39;113843;-65
2021/04/18 07:11:46;;;;;;;;;15.67;15.00;;;;;;;;3558538;39;113974;-65
2021/04/18 07:14:22;;;;;;;;;16.00;12.67;;;;;;;;3557377;39;111806;-69
2021/04/18 07:16:48;;;;;;;;;18.00;14.33;;;;;;;;3559436;39;113054;-64
2021/04/18 07:19:22;;;;;;;;;14.33;13.00;;;;;;;;3560777;39;114135;-63
2021/04/18 07:21:50;;;;;;;;;21.33;18.33;;;;;;;;3562000;39;111824;-64
2021/04/18 07:24:16;;;;;;;;;19.67;17.67;;;;;;;;3558578;39;113635;-64
2021/04/18 07:26:42;;;;;;;;;23.33;19.00;;;;;;;;3557379;39;111746;-65
2021/04/18 07:29:12;;;;;;;;;20.00;17.33;;;;;;;;3558812;39;112278;-64
2021/04/18 07:31:38;;;;;;;;;28.33;28.00;;;;;;;;3558872;39;113844;-64
2021/04/18 07:34:05;;;;;;;;;29.33;25.33;;;;;;;;3559996;39;112000;-64
2021/04/18 07:36:33;;;;;;;;;24.33;22.00;;;;;;;;3559027;39;113300;-65
2021/04/18 07:38:59;;;;;;;;;18.33;17.67;;;;;;;;3557737;39;114108;-63
2021/04/18 07:41:26;;;;;;;;;21.00;17.00;;;;;;;;3558366;39;112847;-64
2021/04/18 07:43:52;;;;;;;;;16.00;14.00;;;;;;;;3560884;39;113683;-64
2021/04/18 07:46:19;;;;;;;;;19.33;17.00;;;;;;;;3554197;39;112005;-63
2021/04/18 07:48:46;;;;;;;;;14.00;14.00;;;;;;;;3558080;39;113304;-63
2021/04/18 07:51:12;;;;;;;;;14.00;14.00;;;;;;;;3558611;39;114242;-64
2021/04/18 07:53:40;;;;;;;;;18.00;13.00;;;;;;;;3557855;39;112126;-63
2021/04/18 07:56:07;;;;;;;;;12.75;12.75;;;;;;;;3559651;39;113239;-65
2021/04/18 07:58:36;;;;;;;;;13.75;12.50;;;;;;;;3556180;39;113079;-65
2021/04/18 08:01:02;;;;;;;;;10.25;10.00;;;;;;;;3559100;39;111855;-67
2021/04/18 08:03:28;;;;;;;;;15.00;11.00;;;;;;;;3558338;39;112268;-69
2021/04/18 08:05:54;;;;;;;;;14.00;11.00;;;;;;;;3554385;39;111991;-67
2021/04/18 08:08:21;;;;;;;;;13.00;11.75;;;;;;;;3557599;39;113677;-67
2021/04/18 08:10:49;;;;;;;;;10.50;9.50;;;;;;;;3560830;39;113718;-67
2021/04/18 08:13:16;;;;;;;;;12.25;12.00;;;;;;;;3558855;39;113624;-69
2021/04/18 08:15:43;;;;;;;;;10.25;10.25;;;;;;;;3559299;39;113246;-66
2021/04/18 08:18:12;;;;;;;;;8.00;7.00;;;;;;;;3556849;39;113983;-67
2021/04/18 08:20:40;;;;;;;;;13.00;10.50;;;;;;;;3557181;39;111865;-67
2021/04/18 08:23:07;;;;;;;;;10.00;9.50;;;;;;;;3556502;39;113514;-67
2021/04/18 08:25:34;;;;;;;;;14.25;9.75;;;;;;;;3561950;39;113928;-68
2021/04/18 08:28:05;;;;;;;;;12.25;10.75;;;;;;;;3560202;39;113214;-72
2021/04/18 08:30:51;;;;;;;;;9.25;9.00;;;;;;;;3555723;39;113797;-65
2021/04/18 08:33:32;;;;;;;;;10.25;10.00;;;;;;;;3557517;39;112653;-65
2021/04/18 08:36:10;;;;;;;;;10.00;9.00;;;;;;;;3556356;39;113271;-67
2021/04/18 08:38:36;;;;;;;;;9.25;8.00;;;;;;;;3557565;39;113897;-67
2021/04/18 08:41:03;;;;;;;;;10.25;10.00;;;;;;;;3561354;39;112787;-69
2021/04/18 08:43:30;;;;;;;;;12.00;9.75;;;;;;;;3559097;39;114104;-69
2021/04/18 08:45:57;;;;;;;;;4.00;4.00;;;;;;;;3558082;39;113908;-72
2021/04/18 08:48:23;;;;;;;;;11.75;11.25;;;;;;;;3561327;39;112071;-69
2021/04/18 08:50:56;;;;;;;;;9.00;8.33;;;;;;;;3556945;39;113077;-73
2021/04/18 08:53:22;;;;;;;;;11.00;9.67;;;;;;;;3560033;39;112189;-71
2021/04/18 08:55:52;;;;;;;;;9.67;9.00;;;;;;;;3559067;39;113692;-69
2021/04/18 08:58:32;;;;;;;;;18.50;15.75;;;;;;;;3557323;39;113911;-69
2021/04/18 09:01:08;;;;;;;;;10.00;10.00;;;;;;;;3558199;39;112089;-68
2021/04/18 09:03:34;;;;;;;;;16.33;13.67;;;;;;;;3555252;39;112850;-69
2021/04/18 09:06:04;;;;;;;;;12.67;11.00;;;;;;;;3557891;39;114714;-69
2021/04/18 09:08:32;;;;;;;;;16.00;16.00;;;;;;;;3559486;39;112553;-69
2021/04/18 09:11:05;;;;;;;;;14.00;12.67;;;;;;;;3563104;39;113534;-69
2021/04/18 09:13:32;;;;;;;;;11.67;10.67;;;;;;;;3556891;39;112173;-69
2021/04/18 09:15:58;;;;;;;;;12.00;11.00;;;;;;;;3559860;39;113203;-67
2021/04/18 09:18:24;;;;;;;;;14.33;12.33;;;;;;;;3557382;39;113122;-69
2021/04/18 09:21:05;;;;;;;;;17.00;15.00;;;;;;;;3559890;39;111893;-66
2021/04/18 09:23:31;;;;;;;;;15.67;11.67;;;;;;;;3560168;39;113832;-68
2021/04/18 09:26:09;;;;;;;;;15.67;15.67;;;;;;;;3559028;39;114209;-69
2021/04/18 09:28:36;;;;;;;;;10.67;10.67;;;;;;;;3558745;39;111917;-69
2021/04/18 09:31:07;;;;;;;;;9.00;9.00;;;;;;;;3559897;39;113274;-67
2021/04/18 09:33:33;;;;;;;;;8.00;8.00;;;;;;;;3561390;39;113971;-66
2021/04/18 09:35:59;;;;;;;;;9.00;9.00;;;;;;;;3557525;39;112603;-67
2021/04/18 09:38:26;;;;;;;;;8.00;8.00;;;;;;;;3558190;39;113818;-68
2021/04/18 09:40:52;;;;;;;;;10.67;10.33;;;;;;;;3556238;39;112019;-67
2021/04/18 09:43:23;;;;;;;;;8.00;8.00;;;;;;;;3558860;39;113304;-68
2021/04/18 09:46:04;;;;;;;;;12.00;11.50;;;;;;;;3559493;39;114256;-68
2021/04/18 09:48:30;;;;;;;;;16.75;15.50;;;;;;;;3559505;39;112187;-68
2021/04/18 09:51:03;;;;;;;;;7.67;7.67;;;;;;;;3559516;39;113711;-66
2021/04/18 09:53:29;;;;;;;;;6.00;6.00;;;;;;;;3559105;39;113765;-69
2021/04/18 09:55:57;;;;;;;;;8.25;8.25;;;;;;;;3562329;39;112261;-69
2021/04/18 09:58:27;;;;;;;;;9.00;8.50;;;;;;;;3560493;39;114558;-68
2021/04/18 10:00:53;;;;;;;;;9.25;9.25;;;;;;;;3562378;39;112266;-69
2021/04/18 10:03:20;;;;;;;;;7.25;7.25;;;;;;;;3559436;39;112888;-69
2021/04/18 10:05:59;;;;;;;;;10.50;10.50;;;;;;;;3558432;39;113903;-66
2021/04/18 10:08:26;;;;;;;;;11.75;9.25;;;;;;;;3559997;39;111874;-68
2021/04/18 10:10:54;;;;;;;;;9.75;8.00;;;;;;;;3559442;39;113457;-71
2021/04/18 10:13:40;;;;;;;;;9.00;6.50;;;;;;;;3558370;39;113803;-75
2021/04/18 10:16:06;;;;;;;;;8.00;7.00;;;;;;;;3559434;39;112099;-79
2021/04/18 10:18:34;;;;;;;;;11.00;10.00;;;;;;;;3559624;39;114139;-77
2021/04/18 10:21:16;;;;;;;;;11.00;9.75;;;;;;;;3557979;39;112184;-77
2021/04/18 10:23:42;;;;;;;;;10.00;9.75;;;;;;;;3557025;39;114104;-77
2021/04/18 10:26:09;;;;;;;;;8.50;8.50;;;;;;;;3555179;39;115133;-78
2021/04/18 10:28:35;;;;;;;;;9.00;9.00;;;;;;;;3556786;39;112155;-78
2021/04/18 10:31:01;;;;;;;;;9.00;8.00;;;;;;;;3558292;39;113204;-74
2021/04/18 10:33:29;;;;;;;;;10.50;10.00;;;;;;;;3558827;39;114259;-74
2021/04/18 10:35:56;;;;;;;;;9.75;8.00;;;;;;;;3558333;39;112223;-74
2021/04/18 10:38:22;;;;;;;;;10.50;9.00;;;;;;;;3561013;39;115486;-75
2021/04/18 10:40:49;;;;;;;;;7.00;7.00;;;;;;;;3559968;39;111976;-73
2021/04/18 10:43:18;;;;;;;;;10.75;9.00;;;;;;;;3557747;39;112648;-73
2021/04/18 10:45:44;;;;;;;;;10.00;8.00;;;;;;;;3558278;39;114439;-73
2021/04/18 10:48:11;;;;;;;;;10.00;10.00;;;;;;;;3556908;39;112199;-73
2021/04/18 10:50:37;;;;;;;;;6.75;6.75;;;;;;;;3558930;39;113381;-71
2021/04/18 10:53:04;;;;;;;;;7.00;6.00;;;;;;;;3558548;39;113991;-72
2021/04/18 10:55:30;;;;;;;;;7.75;6.75;;;;;;;;3557775;39;111829;-72
2021/04/18 10:57:56;;;;;;;;;8.00;6.00;;;;;;;;3558032;39;113490;-72
2021/04/18 11:00:23;;;;;;;;;8.25;8.25;;;;;;;;3561251;39;114330;-72
2021/04/18 11:02:49;;;;;;;;;9.75;7.75;;;;;;;;3558394;39;113307;-72
2021/04/18 11:05:15;;;;;;;;;8.00;6.75;;;;;;;;3559066;39;114133;-72
2021/04/18 11:07:41;;;;;;;;;8.00;8.00;;;;;;;;3558103;39;111811;-73
2021/04/18 11:10:09;;;;;;;;;9.50;8.00;;;;;;;;3559845;39;113370;-73
2021/04/18 11:12:35;;;;;;;;;6.25;6.25;;;;;;;;3557640;39;114119;-71
2021/04/18 11:15:01;;;;;;;;;9.00;7.00;;;;;;;;3559294;39;111893;-73
2021/04/18 11:17:28;;;;;;;;;8.00;7.50;;;;;;;;3558385;39;112679;-72
2021/04/18 11:19:54;;;;;;;;;10.25;10.25;;;;;;;;3556860;39;113697;-75
2021/04/18 11:22:20;;;;;;;;;9.00;6.00;;;;;;;;3561025;39;112060;-72
2021/04/18 11:24:46;;;;;;;;;7.75;6.25;;;;;;;;3559058;39;114081;-73
2021/04/18 11:27:13;;;;;;;;;10.50;9.75;;;;;;;;3557895;39;111870;-71
2021/04/18 11:29:40;;;;;;;;;8.25;8.25;;;;;;;;3556287;39;113396;-69
2021/04/18 11:32:06;;;;;;;;;8.75;8.00;;;;;;;;3557365;39;114725;-69
2021/04/18 11:34:32;;;;;;;;;8.25;8.00;;;;;;;;3557659;39;111905;-68
2021/04/18 11:36:58;;;;;;;;;8.00;8.00;;;;;;;;3559268;39;113342;-69
2021/04/18 11:39:25;;;;;;;;;10.75;10.00;;;;;;;;3556259;39;113919;-71
2021/04/18 11:41:51;;;;;;;;;10.25;10.00;;;;;;;;3559334;39;111814;-69
2021/04/18 11:44:18;;;;;;;;;14.25;12.50;;;;;;;;3560443;39;113267;-69
2021/04/18 11:46:44;;;;;;;;;8.00;7.50;;;;;;;;3559738;39;111754;-69
2021/04/18 11:49:10;;;;;;;;;8.75;8.75;;;;;;;;3557916;39;113371;-69
2021/04/18 11:51:36;;;;;;;;;7.75;7.75;;;;;;;;3559109;39;114327;-68
2021/04/18 11:54:03;;;;;;;;;9.75;9.00;;;;;;;;3558436;39;111743;-69
2021/04/18 11:56:29;;;;;;;;;11.25;8.00;;;;;;;;3558871;39;113827;-68
2021/04/18 11:58:55;;;;;;;;;6.00;6.00;;;;;;;;3558251;39;114034;-69
2021/04/18 12:01:22;;;;;;;;;9.75;8.75;;;;;;;;3558156;39;113039;-68
2021/04/18 12:03:49;;;;;;;;;7.00;7.00;;;;;;;;3559360;39;113364;-67
2021/04/18 12:06:15;;;;;;;;;6.50;6.25;;;;;;;;3559870;39;112317;-71
2021/04/18 12:08:41;;;;;;;;;5.00;5.00;;;;;;;;3559791;39;113392;-69
2021/04/18 12:11:07;;;;;;;;;6.50;6.25;;;;;;;;3559130;39;116407;-72
2021/04/18 12:13:33;;;;;;;;;6.00;6.00;;;;;;;;3558131;39;111847;-70
2021/04/18 12:15:59;;;;;;;;;10.00;10.00;;;;;;;;3559718;39;113281;-68
2021/04/18 12:18:26;;;;;;;;;7.00;7.00;;;;;;;;3557177;39;113491;-68
2021/04/18 12:20:52;;;;;;;;;8.25;8.00;;;;;;;;3556685;39;111943;-70
2021/04/18 12:23:18;;;;;;;;;8.75;7.75;;;;;;;;3557396;39;113078;-69
2021/04/18 12:25:44;;;;;;;;;8.50;8.00;;;;;;;;3563475;39;114492;-77
2021/04/18 12:28:11;;;;;;;;;7.00;7.00;;;;;;;;3557172;39;113917;-73
2021/04/18 12:30:37;;;;;;;;;8.25;8.25;;;;;;;;3558393;39;114192;-74
2021/04/18 12:33:03;;;;;;;;;6.00;6.00;;;;;;;;3557523;39;111885;-75
2021/04/18 12:35:30;;;;;;;;;12.50;10.00;;;;;;;;3558148;39;113287;-77
2021/04/18 12:37:56;;;;;;;;;6.25;6.25;;;;;;;;3557542;39;113958;-78
2021/04/18 12:40:23;;;;;;;;;11.75;8.00;;;;;;;;3557390;39;112642;-76
2021/04/18 12:42:49;;;;;;;;;10.75;8.00;;;;;;;;3557168;39;112278;-73
2021/04/18 12:45:15;;;;;;;;;7.75;7.75;;;;;;;;3558422;39;114096;-73
2021/04/18 12:47:41;;;;;;;;;11.50;9.00;;;;;;;;3561968;39;112102;-84
2021/04/18 12:50:07;;;;;;;;;8.25;8.25;;;;;;;;3556580;39;114997;-84
2021/04/18 12:52:35;;;;;;;;;8.00;6.75;;;;;;;;3557198;39;112006;-77
2021/04/18 12:55:01;;;;;;;;;8.00;8.00;;;;;;;;3559486;39;113555;-79
2021/04/18 12:57:27;;;;;;;;;10.25;10.25;;;;;;;;3557409;39;114188;-78
2021/04/18 12:59:54;;;;;;;;;7.75;7.50;;;;;;;;3558584;39;112045;-79
2021/04/18 13:02:21;;;;;;;;;11.00;10.50;;;;;;;;3557665;39;112870;-78
2021/04/18 13:04:53;;;;;;;;;10.50;9.50;;;;;;;;3558220;39;114611;-73
2021/04/18 13:07:46;;;;;;;;;8.00;8.00;;;;;;;;3538794;39;917647;-68
2021/04/18 13:10:13;;;;;;;;;9.00;9.00;;;;;;;;3560192;39;113995;-68
2021/04/18 13:12:42;;;;;;;;;9.00;7.75;;;;;;;;3560638;39;112048;-69
2021/04/18 13:15:09;;;;;;;;;6.75;6.75;;;;;;;;3560597;39;113359;-68
2021/04/18 13:17:35;;;;;;;;;9.00;7.00;;;;;;;;3560031;39;114012;-68
2021/04/18 13:20:01;;;;;;;;;13.25;11.00;;;;;;;;3560660;39;111990;-68
2021/04/18 13:22:27;;;;;;;;;11.75;9.25;;;;;;;;3560048;39;113111;-67
2021/04/18 13:24:54;;;;;;;;;8.00;7.00;;;;;;;;3554857;39;113086;-68
2021/04/18 13:27:20;;;;;;;;;10.50;10.25;;;;;;;;3563062;39;112336;-69
2021/04/18 13:29:46;;;;;;;;;8.00;8.00;;;;;;;;3560087;39;113763;-68
2021/04/18 13:32:12;;;;;;;;;8.50;8.50;;;;;;;;3560546;39;111743;-68
2021/04/18 13:34:39;;;;;;;;;8.25;8.00;;;;;;;;3560846;39;113220;-68
2021/04/18 13:37:05;;;;;;;;;8.00;8.00;;;;;;;;3560213;39;114009;-68
2021/04/18 13:39:31;;;;;;;;;10.75;9.00;;;;;;;;3560234;39;112015;-69
2021/04/18 13:41:58;;;;;;;;;8.75;8.75;;;;;;;;3560487;39;113361;-69
2021/04/18 13:44:26;;;;;;;;;13.00;13.00;;;;;;;;3559668;39;114058;-69
2021/04/18 13:46:52;;;;;;;;;9.00;9.00;;;;;;;;3560232;39;112197;-69
2021/04/18 13:49:18;;;;;;;;;14.25;10.25;;;;;;;;3562407;39;113105;-69
2021/04/18 13:51:45;;;;;;;;;12.75;10.50;;;;;;;;3557203;39;113091;-70
2021/04/18 13:54:11;;;;;;;;;16.50;15.75;;;;;;;;3558291;39;113360;-69
2021/04/18 13:56:37;;;;;;;;;12.00;11.50;;;;;;;;3559925;39;114058;-68
2021/04/18 13:59:05;;;;;;;;;11.25;10.25;;;;;;;;3560473;39;112214;-69
2021/04/18 14:01:31;;;;;;;;;13.50;11.25;;;;;;;;3560090;39;113536;-68
2021/04/18 14:04:00;;;;;;;;;12.50;12.50;;;;;;;;3560093;39;113851;-72
2021/04/18 14:06:26;;;;;;;;;11.25;11.25;;;;;;;;3560078;39;112122;-71
2021/04/18 14:08:52;;;;;;;;;13.50;12.00;;;;;;;;3560427;39;113151;-71
2021/04/18 14:11:18;;;;;;;;;10.50;7.75;;;;;;;;3562217;39;114201;-71
2021/04/18 14:13:44;;;;;;;;;12.00;11.25;;;;;;;;3560470;39;113486;-71